Terminal Aerodrome Forecast
Issued by NWS Sterling, VA

Home | Current Version | Previous Version | Text Only | Print | Product List | Glossary On
Versions: 1 2 3 4 5 6 7 8 9 10 11 12 13 14 15 16 17 18 19 20 21 22 23 24 25 26 27
000
FTUS41 KLWX 061439 AAA
TAFDCA
TAF AMD
KDCA 061439Z 0615/0712 00000KT P6SM SCT250
     FM061800 07006KT P6SM VCSH BKN050
     FM062300 11007KT P6SM BKN050
     FM070900 08004KT P6SM BKN025=

USA.gov is the U.S. government's official web portal to all federal, state and local government web resources and services.